sensor_id;sensor_type;location;lat;lon;timestamp;temperature;humidity
53520;DHT22;39397;53.204;5.778;2022-12-29T00:02:20;10.00;99.90
53520;DHT22;39397;53.204;5.778;2022-12-29T00:04:46;9.90;99.90
53520;DHT22;39397;53.204;5.778;2022-12-29T00:07:11;9.90;99.90
53520;DHT22;39397;53.204;5.778;2022-12-29T00:09:37;9.90;99.90
53520;DHT22;39397;53.204;5.778;2022-12-29T00:12:04;9.80;99.90
53520;DHT22;39397;53.204;5.778;2022-12-29T00:14:30;9.90;99.90
53520;DHT22;39397;53.204;5.778;2022-12-29T00:17:14;9.80;99.90
53520;DHT22;39397;53.204;5.778;2022-12-29T00:19:41;9.70;99.90
53520;DHT22;39397;53.204;5.778;2022-12-29T00:22:25;10.60;99.90
53520;DHT22;39397;53.204;5.778;2022-12-29T00:25:11;9.60;99.90
53520;DHT22;39397;53.204;5.778;2022-12-29T00:27:56;9.60;99.90
53520;DHT22;39397;53.204;5.778;2022-12-29T00:30:40;9.60;99.90
53520;DHT22;39397;53.204;5.778;2022-12-29T00:33:32;9.70;99.90
53520;DHT22;39397;53.204;5.778;2022-12-29T00:36:19;9.70;99.90
53520;DHT22;39397;53.204;5.778;2022-12-29T00:39:07;9.60;99.90
53520;DHT22;39397;53.204;5.778;2022-12-29T00:41:53;9.70;99.90
53520;DHT22;39397;53.204;5.778;2022-12-29T00:44:37;9.70;99.90
53520;DHT22;39397;53.204;5.778;2022-12-29T00:47:02;9.70;99.90
53520;DHT22;39397;53.204;5.778;2022-12-29T00:49:30;9.70;99.90
53520;DHT22;39397;53.204;5.778;2022-12-29T00:52:05;9.70;99.90
53520;DHT22;39397;53.204;5.778;2022-12-29T00:54:33;9.80;99.90
53520;DHT22;39397;53.204;5.778;2022-12-29T00:56:59;9.80;99.90
53520;DHT22;39397;53.204;5.778;2022-12-29T00:59:25;9.70;99.90
53520;DHT22;39397;53.204;5.778;2022-12-29T01:01:52;9.70;99.90
53520;DHT22;39397;53.204;5.778;2022-12-29T01:04:19;9.80;99.90
53520;DHT22;39397;53.204;5.778;2022-12-29T01:06:45;9.80;99.90
53520;DHT22;39397;53.204;5.778;2022-12-29T01:09:11;9.80;99.90
53520;DHT22;39397;53.204;5.778;2022-12-29T01:11:55;9.80;99.90
53520;DHT22;39397;53.204;5.778;2022-12-29T01:14:21;9.70;99.90
53520;DHT22;39397;53.204;5.778;2022-12-29T01:16:47;9.70;99.90
53520;DHT22;39397;53.204;5.778;2022-12-29T01:19:14;9.80;99.90
53520;DHT22;39397;53.204;5.778;2022-12-29T01:21:40;9.80;99.90
53520;DHT22;39397;53.204;5.778;2022-12-29T01:24:06;9.80;99.90
53520;DHT22;39397;53.204;5.778;2022-12-29T01:26:32;9.80;99.90
53520;DHT22;39397;53.204;5.778;2022-12-29T01:28:58;9.70;99.90
53520;DHT22;39397;53.204;5.778;2022-12-29T01:31:23;9.50;99.90
53520;DHT22;39397;53.204;5.778;2022-12-29T01:33:49;9.80;99.90
53520;DHT22;39397;53.204;5.778;2022-12-29T01:36:18;9.70;99.90
53520;DHT22;39397;53.204;5.778;2022-12-29T01:38:44;9.80;99.90
53520;DHT22;39397;53.204;5.778;2022-12-29T01:41:13;9.80;99.90
53520;DHT22;39397;53.204;5.778;2022-12-29T01:43:41;9.80;99.90
53520;DHT22;39397;53.204;5.778;2022-12-29T01:49:15;9.80;99.90
53520;DHT22;39397;53.204;5.778;2022-12-29T01:51:45;9.80;99.90
53520;DHT22;39397;53.204;5.778;2022-12-29T01:54:19;9.80;99.90
53520;DHT22;39397;53.204;5.778;2022-12-29T01:56:46;10.60;99.90
53520;DHT22;39397;53.204;5.778;2022-12-29T01:59:15;9.70;99.90
53520;DHT22;39397;53.204;5.778;2022-12-29T02:01:44;9.80;99.90
53520;DHT22;39397;53.204;5.778;2022-12-29T02:04:11;10.60;99.90
53520;DHT22;39397;53.204;5.778;2022-12-29T02:06:43;9.70;99.90
53520;DHT22;39397;53.204;5.778;2022-12-29T02:09:10;9.70;99.90
53520;DHT22;39397;53.204;5.778;2022-12-29T02:11:36;9.80;99.90
53520;DHT22;39397;53.204;5.778;2022-12-29T02:14:09;9.80;99.90
53520;DHT22;39397;53.204;5.778;2022-12-29T02:26:00;9.90;99.90
53520;DHT22;39397;53.204;5.778;2022-12-29T02:42:55;9.60;99.90
53520;DHT22;39397;53.204;5.778;2022-12-29T02:48:20;9.70;99.90
53520;DHT22;39397;53.204;5.778;2022-12-29T02:50:58;9.60;99.90
53520;DHT22;39397;53.204;5.778;2022-12-29T02:53:26;9.60;99.90
53520;DHT22;39397;53.204;5.778;2022-12-29T02:56:12;9.60;99.90
53520;DHT22;39397;53.204;5.778;2022-12-29T02:58:38;9.60;99.90
53520;DHT22;39397;53.204;5.778;2022-12-29T03:07:00;9.50;99.90
53520;DHT22;39397;53.204;5.778;2022-12-29T03:09:52;9.40;99.90
53520;DHT22;39397;53.204;5.778;2022-12-29T03:12:29;9.40;99.90
53520;DHT22;39397;53.204;5.778;2022-12-29T03:15:23;9.40;99.90
53520;DHT22;39397;53.204;5.778;2022-12-29T03:18:15;9.20;99.90
53520;DHT22;39397;53.204;5.778;2022-12-29T03:23:44;9.30;99.90
53520;DHT22;39397;53.204;5.778;2022-12-29T03:26:14;9.20;99.90
53520;DHT22;39397;53.204;5.778;2022-12-29T03:28:46;10.50;99.90
53520;DHT22;39397;53.204;5.778;2022-12-29T03:31:14;9.30;99.90
53520;DHT22;39397;53.204;5.778;2022-12-29T03:33:41;9.30;99.90
53520;DHT22;39397;53.204;5.778;2022-12-29T03:36:12;9.50;99.90
53520;DHT22;39397;53.204;5.778;2022-12-29T03:38:49;9.30;99.90
53520;DHT22;39397;53.204;5.778;2022-12-29T03:41:20;9.40;99.90
53520;DHT22;39397;53.204;5.778;2022-12-29T03:43:48;9.30;99.90
53520;DHT22;39397;53.204;5.778;2022-12-29T03:46:13;9.30;99.90
53520;DHT22;39397;53.204;5.778;2022-12-29T03:48:39;9.20;99.90
53520;DHT22;39397;53.204;5.778;2022-12-29T03:51:05;9.20;99.90
53520;DHT22;39397;53.204;5.778;2022-12-29T03:53:30;9.30;99.90
53520;DHT22;39397;53.204;5.778;2022-12-29T03:55:56;9.10;99.90
53520;DHT22;39397;53.204;5.778;2022-12-29T03:58:22;9.10;99.90
53520;DHT22;39397;53.204;5.778;2022-12-29T04:00:48;9.10;99.90
53520;DHT22;39397;53.204;5.778;2022-12-29T04:03:13;9.10;99.90
53520;DHT22;39397;53.204;5.778;2022-12-29T04:05:39;9.00;99.90
53520;DHT22;39397;53.204;5.778;2022-12-29T04:08:05;10.00;99.90
53520;DHT22;39397;53.204;5.778;2022-12-29T04:10:30;9.10;99.90
53520;DHT22;39397;53.204;5.778;2022-12-29T04:12:56;9.80;99.90
53520;DHT22;39397;53.204;5.778;2022-12-29T04:15:22;9.20;99.90
53520;DHT22;39397;53.204;5.778;2022-12-29T04:17:49;9.10;99.90
53520;DHT22;39397;53.204;5.778;2022-12-29T04:20:15;9.30;99.90
53520;DHT22;39397;53.204;5.778;2022-12-29T04:23:02;9.20;99.90
53520;DHT22;39397;53.204;5.778;2022-12-29T04:25:28;9.00;99.90
53520;DHT22;39397;53.204;5.778;2022-12-29T04:27:54;9.10;99.90
53520;DHT22;39397;53.204;5.778;2022-12-29T04:30:19;9.00;99.90
53520;DHT22;39397;53.204;5.778;2022-12-29T04:32:45;8.90;99.90
53520;DHT22;39397;53.204;5.778;2022-12-29T04:35:11;9.10;99.90
53520;DHT22;39397;53.204;5.778;2022-12-29T04:37:36;8.90;99.90
53520;DHT22;39397;53.204;5.778;2022-12-29T04:40:02;8.80;99.90
53520;DHT22;39397;53.204;5.778;2022-12-29T04:42:28;8.80;99.90
53520;DHT22;39397;53.204;5.778;2022-12-29T04:44:54;8.90;99.90
53520;DHT22;39397;53.204;5.778;2022-12-29T04:47:19;9.40;99.90
53520;DHT22;39397;53.204;5.778;2022-12-29T04:49:45;9.40;99.90
53520;DHT22;39397;53.204;5.778;2022-12-29T04:52:11;8.90;99.90
53520;DHT22;39397;53.204;5.778;2022-12-29T04:54:36;10.10;99.90
53520;DHT22;39397;53.204;5.778;2022-12-29T04:57:02;9.00;99.90
53520;DHT22;39397;53.204;5.778;2022-12-29T04:59:28;9.00;99.90
53520;DHT22;39397;53.204;5.778;2022-12-29T05:01:53;9.50;99.90
53520;DHT22;39397;53.204;5.778;2022-12-29T05:04:19;9.00;99.90
53520;DHT22;39397;53.204;5.778;2022-12-29T05:06:44;9.10;99.90
53520;DHT22;39397;53.204;5.778;2022-12-29T05:09:10;9.00;99.90
53520;DHT22;39397;53.204;5.778;2022-12-29T05:11:36;9.10;99.90
53520;DHT22;39397;53.204;5.778;2022-12-29T05:14:02;9.10;99.90
53520;DHT22;39397;53.204;5.778;2022-12-29T05:16:27;9.10;99.90
53520;DHT22;39397;53.204;5.778;2022-12-29T05:18:53;9.70;99.90
53520;DHT22;39397;53.204;5.778;2022-12-29T05:21:19;9.10;99.90
53520;DHT22;39397;53.204;5.778;2022-12-29T05:23:44;9.70;99.90
53520;DHT22;39397;53.204;5.778;2022-12-29T05:26:10;9.30;99.90
53520;DHT22;39397;53.204;5.778;2022-12-29T05:28:35;9.00;99.90
53520;DHT22;39397;53.204;5.778;2022-12-29T05:31:01;9.10;99.90
53520;DHT22;39397;53.204;5.778;2022-12-29T05:33:27;9.10;99.90
53520;DHT22;39397;53.204;5.778;2022-12-29T05:35:53;9.30;99.90
53520;DHT22;39397;53.204;5.778;2022-12-29T05:38:18;9.30;99.90
53520;DHT22;39397;53.204;5.778;2022-12-29T05:40:45;9.10;99.90
53520;DHT22;39397;53.204;5.778;2022-12-29T05:43:10;9.10;99.90
53520;DHT22;39397;53.204;5.778;2022-12-29T05:45:36;9.70;99.90
53520;DHT22;39397;53.204;5.778;2022-12-29T05:48:02;9.30;99.90
53520;DHT22;39397;53.204;5.778;2022-12-29T05:50:28;9.20;99.90
53520;DHT22;39397;53.204;5.778;2022-12-29T05:52:54;9.30;99.90
53520;DHT22;39397;53.204;5.778;2022-12-29T05:55:19;9.00;99.90
53520;DHT22;39397;53.204;5.778;2022-12-29T05:57:45;9.90;99.90
53520;DHT22;39397;53.204;5.778;2022-12-29T06:00:11;9.20;99.90
53520;DHT22;39397;53.204;5.778;2022-12-29T06:02:37;9.30;99.90
53520;DHT22;39397;53.204;5.778;2022-12-29T06:05:03;9.20;99.90
53520;DHT22;39397;53.204;5.778;2022-12-29T06:07:29;9.20;99.90
53520;DHT22;39397;53.204;5.778;2022-12-29T06:09:54;9.30;99.90
53520;DHT22;39397;53.204;5.778;2022-12-29T06:12:20;9.20;99.90
53520;DHT22;39397;53.204;5.778;2022-12-29T06:14:46;9.20;99.90
53520;DHT22;39397;53.204;5.778;2022-12-29T06:17:11;9.90;99.90
53520;DHT22;39397;53.204;5.778;2022-12-29T06:19:37;9.00;99.90
53520;DHT22;39397;53.204;5.778;2022-12-29T06:22:03;9.10;99.90
53520;DHT22;39397;53.204;5.778;2022-12-29T06:24:28;9.00;99.90
53520;DHT22;39397;53.204;5.778;2022-12-29T06:26:54;8.90;99.90
53520;DHT22;39397;53.204;5.778;2022-12-29T06:29:20;8.90;99.90
53520;DHT22;39397;53.204;5.778;2022-12-29T06:31:46;8.90;99.90
53520;DHT22;39397;53.204;5.778;2022-12-29T06:34:12;8.90;99.90
53520;DHT22;39397;53.204;5.778;2022-12-29T06:36:38;8.80;99.90
53520;DHT22;39397;53.204;5.778;2022-12-29T06:39:05;8.80;99.90
53520;DHT22;39397;53.204;5.778;2022-12-29T06:41:30;8.80;99.90
53520;DHT22;39397;53.204;5.778;2022-12-29T06:43:57;9.70;99.90
53520;DHT22;39397;53.204;5.778;2022-12-29T06:46:23;8.80;99.90
53520;DHT22;39397;53.204;5.778;2022-12-29T06:48:48;8.80;99.90
53520;DHT22;39397;53.204;5.778;2022-12-29T06:51:14;8.90;99.90
53520;DHT22;39397;53.204;5.778;2022-12-29T06:53:40;8.90;99.90
53520;DHT22;39397;53.204;5.778;2022-12-29T06:56:06;8.80;99.90
53520;DHT22;39397;53.204;5.778;2022-12-29T06:58:31;8.90;99.90
53520;DHT22;39397;53.204;5.778;2022-12-29T07:00:57;8.90;99.90
53520;DHT22;39397;53.204;5.778;2022-12-29T07:03:23;8.90;99.90
53520;DHT22;39397;53.204;5.778;2022-12-29T07:05:49;9.00;99.90
53520;DHT22;39397;53.204;5.778;2022-12-29T07:08:14;8.90;99.90
53520;DHT22;39397;53.204;5.778;2022-12-29T07:10:40;9.10;99.90
53520;DHT22;39397;53.204;5.778;2022-12-29T07:13:06;10.20;99.90
53520;DHT22;39397;53.204;5.778;2022-12-29T07:15:33;9.00;99.90
53520;DHT22;39397;53.204;5.778;2022-12-29T07:17:59;9.10;99.90
53520;DHT22;39397;53.204;5.778;2022-12-29T07:20:25;9.00;99.90
53520;DHT22;39397;53.204;5.778;2022-12-29T07:22:50;9.00;99.90
53520;DHT22;39397;53.204;5.778;2022-12-29T07:25:16;9.10;99.90
53520;DHT22;39397;53.204;5.778;2022-12-29T07:27:42;9.60;99.90
53520;DHT22;39397;53.204;5.778;2022-12-29T07:30:08;10.00;99.90
53520;DHT22;39397;53.204;5.778;2022-12-29T07:32:34;9.20;99.90
53520;DHT22;39397;53.204;5.778;2022-12-29T07:35:00;10.00;99.90
53520;DHT22;39397;53.204;5.778;2022-12-29T07:37:26;9.20;99.90
53520;DHT22;39397;53.204;5.778;2022-12-29T07:39:52;9.10;99.90
53520;DHT22;39397;53.204;5.778;2022-12-29T07:42:18;9.20;99.90
53520;DHT22;39397;53.204;5.778;2022-12-29T07:44:44;9.90;99.90
53520;DHT22;39397;53.204;5.778;2022-12-29T07:47:09;9.10;99.90
53520;DHT22;39397;53.204;5.778;2022-12-29T07:49:35;9.20;99.90
53520;DHT22;39397;53.204;5.778;2022-12-29T07:52:01;9.20;99.90
53520;DHT22;39397;53.204;5.778;2022-12-29T07:54:26;9.30;99.90
53520;DHT22;39397;53.204;5.778;2022-12-29T07:56:52;9.30;99.90
53520;DHT22;39397;53.204;5.778;2022-12-29T07:59:18;9.20;99.90
53520;DHT22;39397;53.204;5.778;2022-12-29T08:01:43;9.20;99.90
53520;DHT22;39397;53.204;5.778;2022-12-29T08:04:09;9.30;99.90
53520;DHT22;39397;53.204;5.778;2022-12-29T08:06:35;9.30;99.90
53520;DHT22;39397;53.204;5.778;2022-12-29T08:09:00;9.20;99.90
53520;DHT22;39397;53.204;5.778;2022-12-29T08:11:27;9.30;99.90
53520;DHT22;39397;53.204;5.778;2022-12-29T08:13:53;9.50;99.90
53520;DHT22;39397;53.204;5.778;2022-12-29T08:16:18;9.30;99.90
53520;DHT22;39397;53.204;5.778;2022-12-29T08:18:44;9.20;99.90
53520;DHT22;39397;53.204;5.778;2022-12-29T08:21:10;9.30;99.90
53520;DHT22;39397;53.204;5.778;2022-12-29T08:23:36;9.30;99.90
53520;DHT22;39397;53.204;5.778;2022-12-29T08:26:05;9.20;99.90
53520;DHT22;39397;53.204;5.778;2022-12-29T08:28:32;9.20;99.90
53520;DHT22;39397;53.204;5.778;2022-12-29T08:31:02;9.40;99.90
53520;DHT22;39397;53.204;5.778;2022-12-29T08:33:29;9.40;99.90
53520;DHT22;39397;53.204;5.778;2022-12-29T08:36:03;9.30;99.90
53520;DHT22;39397;53.204;5.778;2022-12-29T08:38:30;9.30;99.90
53520;DHT22;39397;53.204;5.778;2022-12-29T08:40:57;9.30;99.90
53520;DHT22;39397;53.204;5.778;2022-12-29T08:43:23;10.00;99.90
53520;DHT22;39397;53.204;5.778;2022-12-29T08:45:49;9.70;99.90
53520;DHT22;39397;53.204;5.778;2022-12-29T08:48:15;9.30;99.90
53520;DHT22;39397;53.204;5.778;2022-12-29T08:50:46;9.40;99.90
53520;DHT22;39397;53.204;5.778;2022-12-29T08:53:12;9.40;99.90
53520;DHT22;39397;53.204;5.778;2022-12-29T08:55:38;9.90;99.90
53520;DHT22;39397;53.204;5.778;2022-12-29T08:58:04;9.40;99.90
53520;DHT22;39397;53.204;5.778;2022-12-29T09:00:29;9.40;99.90
53520;DHT22;39397;53.204;5.778;2022-12-29T09:02:55;9.30;99.90
53520;DHT22;39397;53.204;5.778;2022-12-29T09:05:21;9.30;99.90
53520;DHT22;39397;53.204;5.778;2022-12-29T09:07:46;9.30;99.90
53520;DHT22;39397;53.204;5.778;2022-12-29T09:10:12;9.30;99.90
53520;DHT22;39397;53.204;5.778;2022-12-29T09:12:38;9.30;99.90
53520;DHT22;39397;53.204;5.778;2022-12-29T09:15:04;9.20;99.90
53520;DHT22;39397;53.204;5.778;2022-12-29T09:17:30;9.20;99.90
53520;DHT22;39397;53.204;5.778;2022-12-29T09:20:13;9.00;99.90
53520;DHT22;39397;53.204;5.778;2022-12-29T09:22:39;10.30;99.90
53520;DHT22;39397;53.204;5.778;2022-12-29T09:25:05;9.10;99.90
53520;DHT22;39397;53.204;5.778;2022-12-29T09:27:31;9.10;99.90
53520;DHT22;39397;53.204;5.778;2022-12-29T09:29:57;9.10;99.90
53520;DHT22;39397;53.204;5.778;2022-12-29T09:32:23;9.10;99.90
53520;DHT22;39397;53.204;5.778;2022-12-29T09:34:49;9.00;99.90
53520;DHT22;39397;53.204;5.778;2022-12-29T09:37:15;9.10;99.90
53520;DHT22;39397;53.204;5.778;2022-12-29T09:39:40;9.10;99.90
53520;DHT22;39397;53.204;5.778;2022-12-29T09:47:21;8.90;99.90
53520;DHT22;39397;53.204;5.778;2022-12-29T09:49:49;9.00;99.90
53520;DHT22;39397;53.204;5.778;2022-12-29T09:52:38;8.90;99.90
53520;DHT22;39397;53.204;5.778;2022-12-29T09:55:14;9.00;99.90
53520;DHT22;39397;53.204;5.778;2022-12-29T09:57:52;8.90;99.90
53520;DHT22;39397;53.204;5.778;2022-12-29T10:00:22;8.80;99.90
53520;DHT22;39397;53.204;5.778;2022-12-29T10:03:20;8.80;99.90
53520;DHT22;39397;53.204;5.778;2022-12-29T10:08:44;9.90;99.90
53520;DHT22;39397;53.204;5.778;2022-12-29T10:14:17;8.70;99.90
53520;DHT22;39397;53.204;5.778;2022-12-29T10:24:49;8.80;99.90
53520;DHT22;39397;53.204;5.778;2022-12-29T10:27:16;9.20;99.90
53520;DHT22;39397;53.204;5.778;2022-12-29T10:29:52;9.30;99.90
53520;DHT22;39397;53.204;5.778;2022-12-29T10:35:19;9.10;99.90
53520;DHT22;39397;53.204;5.778;2022-12-29T10:40:58;9.20;99.90
53520;DHT22;39397;53.204;5.778;2022-12-29T10:43:28;9.10;99.90
53520;DHT22;39397;53.204;5.778;2022-12-29T10:46:21;9.30;99.90
53520;DHT22;39397;53.204;5.778;2022-12-29T10:48:48;9.10;99.90
53520;DHT22;39397;53.204;5.778;2022-12-29T10:51:26;9.40;99.90
53520;DHT22;39397;53.204;5.778;2022-12-29T10:54:21;9.20;99.90
53520;DHT22;39397;53.204;5.778;2022-12-29T10:56:54;9.30;99.90
53520;DHT22;39397;53.204;5.778;2022-12-29T10:59:29;9.20;99.90
53520;DHT22;39397;53.204;5.778;2022-12-29T11:07:24;9.30;99.90
53520;DHT22;39397;53.204;5.778;2022-12-29T11:09:51;9.30;99.90
53520;DHT22;39397;53.204;5.778;2022-12-29T11:12:29;9.30;99.90
53520;DHT22;39397;53.204;5.778;2022-12-29T11:17:56;9.50;99.90
53520;DHT22;39397;53.204;5.778;2022-12-29T11:20:32;9.50;99.90
53520;DHT22;39397;53.204;5.778;2022-12-29T11:22:59;9.30;99.90
53520;DHT22;39397;53.204;5.778;2022-12-29T11:25:26;9.20;99.90
53520;DHT22;39397;53.204;5.778;2022-12-29T11:28:23;9.30;99.90
53520;DHT22;39397;53.204;5.778;2022-12-29T11:30:59;9.20;99.90
53520;DHT22;39397;53.204;5.778;2022-12-29T11:33:28;9.10;99.90
53520;DHT22;39397;53.204;5.778;2022-12-29T11:36:07;9.50;99.90
53520;DHT22;39397;53.204;5.778;2022-12-29T11:38:40;9.00;99.90
53520;DHT22;39397;53.204;5.778;2022-12-29T11:41:11;8.90;99.90
53520;DHT22;39397;53.204;5.778;2022-12-29T11:43:41;9.10;99.90
53520;DHT22;39397;53.204;5.778;2022-12-29T11:46:16;10.00;99.90
53520;DHT22;39397;53.204;5.778;2022-12-29T11:48:43;9.30;99.90
53520;DHT22;39397;53.204;5.778;2022-12-29T11:51:09;8.90;99.90
53520;DHT22;39397;53.204;5.778;2022-12-29T11:53:45;9.70;99.90
53520;DHT22;39397;53.204;5.778;2022-12-29T11:56:15;9.00;99.90
53520;DHT22;39397;53.204;5.778;2022-12-29T11:58:41;9.00;99.90
53520;DHT22;39397;53.204;5.778;2022-12-29T12:01:26;9.00;99.90
53520;DHT22;39397;53.204;5.778;2022-12-29T12:04:14;9.20;99.90
53520;DHT22;39397;53.204;5.778;2022-12-29T12:07:34;9.10;99.90
53520;DHT22;39397;53.204;5.778;2022-12-29T12:09:53;9.20;99.90
53520;DHT22;39397;53.204;5.778;2022-12-29T12:12:29;9.10;99.90
53520;DHT22;39397;53.204;5.778;2022-12-29T12:14:58;9.10;99.90
53520;DHT22;39397;53.204;5.778;2022-12-29T12:17:51;10.10;99.90
53520;DHT22;39397;53.204;5.778;2022-12-29T12:20:34;9.20;99.90
53520;DHT22;39397;53.204;5.778;2022-12-29T12:26:09;9.10;99.90
53520;DHT22;39397;53.204;5.778;2022-12-29T12:28:55;9.30;99.90
53520;DHT22;39397;53.204;5.778;2022-12-29T12:31:43;9.30;99.90
53520;DHT22;39397;53.204;5.778;2022-12-29T12:34:18;9.50;99.90
53520;DHT22;39397;53.204;5.778;2022-12-29T12:39:25;9.30;99.90
53520;DHT22;39397;53.204;5.778;2022-12-29T12:50:09;9.70;99.90
53520;DHT22;39397;53.204;5.778;2022-12-29T12:53:12;9.30;99.90
53520;DHT22;39397;53.204;5.778;2022-12-29T12:55:57;9.30;99.90
53520;DHT22;39397;53.204;5.778;2022-12-29T12:58:46;9.60;99.90
53520;DHT22;39397;53.204;5.778;2022-12-29T13:10:13;9.10;99.90
53520;DHT22;39397;53.204;5.778;2022-12-29T13:18:46;9.10;99.90
53520;DHT22;39397;53.204;5.778;2022-12-29T13:21:37;9.10;99.90
53520;DHT22;39397;53.204;5.778;2022-12-29T13:24:20;9.00;99.90
53520;DHT22;39397;53.204;5.778;2022-12-29T13:26:48;9.00;99.90
53520;DHT22;39397;53.204;5.778;2022-12-29T13:29:30;9.00;99.90
53520;DHT22;39397;53.204;5.778;2022-12-29T13:37:30;9.10;99.90
53520;DHT22;39397;53.204;5.778;2022-12-29T13:40:13;9.00;99.90
53520;DHT22;39397;53.204;5.778;2022-12-29T13:42:41;9.10;99.90
53520;DHT22;39397;53.204;5.778;2022-12-29T13:45:16;9.00;99.90
53520;DHT22;39397;53.204;5.778;2022-12-29T13:47:57;9.10;99.90
53520;DHT22;39397;53.204;5.778;2022-12-29T13:50:27;9.10;99.90
53520;DHT22;39397;53.204;5.778;2022-12-29T13:53:10;9.10;99.90
53520;DHT22;39397;53.204;5.778;2022-12-29T14:03:49;9.00;99.90
53520;DHT22;39397;53.204;5.778;2022-12-29T14:06:30;9.00;99.90
53520;DHT22;39397;53.204;5.778;2022-12-29T14:11:28;9.50;99.90
53520;DHT22;39397;53.204;5.778;2022-12-29T14:13:55;9.00;99.90
53520;DHT22;39397;53.204;5.778;2022-12-29T14:16:32;8.70;99.90
53520;DHT22;39397;53.204;5.778;2022-12-29T14:19:21;8.70;99.90
53520;DHT22;39397;53.204;5.778;2022-12-29T14:21:53;8.70;99.90
53520;DHT22;39397;53.204;5.778;2022-12-29T14:35:38;9.20;99.90
53520;DHT22;39397;53.204;5.778;2022-12-29T14:38:16;8.60;99.90
53520;DHT22;39397;53.204;5.778;2022-12-29T14:40:42;8.50;99.90
53520;DHT22;39397;53.204;5.778;2022-12-29T14:43:13;8.50;99.90
53520;DHT22;39397;53.204;5.778;2022-12-29T14:45:41;8.50;99.90
53520;DHT22;39397;53.204;5.778;2022-12-29T14:48:46;8.40;99.90
53520;DHT22;39397;53.204;5.778;2022-12-29T14:51:29;8.40;99.90
53520;DHT22;39397;53.204;5.778;2022-12-29T14:53:56;8.40;99.90
53520;DHT22;39397;53.204;5.778;2022-12-29T14:56:27;8.30;99.90
53520;DHT22;39397;53.204;5.778;2022-12-29T14:59:02;8.40;99.90
53520;DHT22;39397;53.204;5.778;2022-12-29T15:01:39;8.30;99.90
53520;DHT22;39397;53.204;5.778;2022-12-29T15:04:23;8.30;99.90
53520;DHT22;39397;53.204;5.778;2022-12-29T15:06:50;8.40;99.90
53520;DHT22;39397;53.204;5.778;2022-12-29T15:09:30;8.20;99.90
53520;DHT22;39397;53.204;5.778;2022-12-29T15:15:01;8.30;99.90
53520;DHT22;39397;53.204;5.778;2022-12-29T15:17:34;8.30;99.90
53520;DHT22;39397;53.204;5.778;2022-12-29T15:20:16;8.30;99.90
53520;DHT22;39397;53.204;5.778;2022-12-29T15:22:44;8.90;99.90
53520;DHT22;39397;53.204;5.778;2022-12-29T15:25:15;8.30;99.90
53520;DHT22;39397;53.204;5.778;2022-12-29T15:27:41;8.40;99.90
53520;DHT22;39397;53.204;5.778;2022-12-29T15:30:12;9.30;99.90
53520;DHT22;39397;53.204;5.778;2022-12-29T15:32:40;8.40;99.90
53520;DHT22;39397;53.204;5.778;2022-12-29T15:37:52;8.40;99.90
53520;DHT22;39397;53.204;5.778;2022-12-29T15:40:32;8.30;99.90
53520;DHT22;39397;53.204;5.778;2022-12-29T15:46:21;8.40;99.90
53520;DHT22;39397;53.204;5.778;2022-12-29T15:48:47;9.50;99.90
53520;DHT22;39397;53.204;5.778;2022-12-29T15:53:50;8.40;99.90
53520;DHT22;39397;53.204;5.778;2022-12-29T15:56:16;8.30;99.90
53520;DHT22;39397;53.204;5.778;2022-12-29T15:58:44;8.20;99.90
53520;DHT22;39397;53.204;5.778;2022-12-29T16:03:53;8.10;99.90
53520;DHT22;39397;53.204;5.778;2022-12-29T16:06:39;8.00;99.90
53520;DHT22;39397;53.204;5.778;2022-12-29T16:09:18;8.00;99.90
53520;DHT22;39397;53.204;5.778;2022-12-29T16:11:56;7.90;99.90
53520;DHT22;39397;53.204;5.778;2022-12-29T16:14:37;6.70;99.90
53520;DHT22;39397;53.204;5.778;2022-12-29T16:17:05;7.80;99.90
53520;DHT22;39397;53.204;5.778;2022-12-29T16:19:39;7.80;99.90
53520;DHT22;39397;53.204;5.778;2022-12-29T16:22:41;7.80;99.90
53520;DHT22;39397;53.204;5.778;2022-12-29T16:25:33;7.70;99.90
53520;DHT22;39397;53.204;5.778;2022-12-29T16:28:01;7.80;99.90
53520;DHT22;39397;53.204;5.778;2022-12-29T16:30:30;8.00;99.90
53520;DHT22;39397;53.204;5.778;2022-12-29T16:33:02;7.70;99.90
53520;DHT22;39397;53.204;5.778;2022-12-29T16:35:37;7.60;99.90
53520;DHT22;39397;53.204;5.778;2022-12-29T16:38:22;7.60;99.90
53520;DHT22;39397;53.204;5.778;2022-12-29T16:40:54;8.10;99.90
53520;DHT22;39397;53.204;5.778;2022-12-29T16:43:31;7.50;99.90
53520;DHT22;39397;53.204;5.778;2022-12-29T16:48:32;8.10;99.90
53520;DHT22;39397;53.204;5.778;2022-12-29T16:51:31;7.40;99.90
53520;DHT22;39397;53.204;5.778;2022-12-29T16:53:59;7.40;99.90
53520;DHT22;39397;53.204;5.778;2022-12-29T16:56:32;7.40;99.90
53520;DHT22;39397;53.204;5.778;2022-12-29T16:59:05;7.30;99.90
53520;DHT22;39397;53.204;5.778;2022-12-29T17:01:36;7.30;99.90
53520;DHT22;39397;53.204;5.778;2022-12-29T17:04:06;8.00;99.90
53520;DHT22;39397;53.204;5.778;2022-12-29T17:06:33;7.40;99.90
53520;DHT22;39397;53.204;5.778;2022-12-29T17:08:58;7.50;99.90
53520;DHT22;39397;53.204;5.778;2022-12-29T17:11:28;7.60;99.90
53520;DHT22;39397;53.204;5.778;2022-12-29T17:14:45;8.30;99.90
53520;DHT22;39397;53.204;5.778;2022-12-29T17:17:18;7.50;99.90
53520;DHT22;39397;53.204;5.778;2022-12-29T17:19:48;8.40;99.90
53520;DHT22;39397;53.204;5.778;2022-12-29T17:22:23;7.50;99.90
53520;DHT22;39397;53.204;5.778;2022-12-29T17:24:54;7.80;99.90
53520;DHT22;39397;53.204;5.778;2022-12-29T17:27:38;7.90;99.90
53520;DHT22;39397;53.204;5.778;2022-12-29T17:30:17;7.90;99.90
53520;DHT22;39397;53.204;5.778;2022-12-29T17:32:54;7.90;99.90
53520;DHT22;39397;53.204;5.778;2022-12-29T17:35:22;7.80;99.90
53520;DHT22;39397;53.204;5.778;2022-12-29T17:37:48;7.80;99.90
53520;DHT22;39397;53.204;5.778;2022-12-29T17:40:17;8.80;99.90
53520;DHT22;39397;53.204;5.778;2022-12-29T17:42:48;7.80;99.90
53520;DHT22;39397;53.204;5.778;2022-12-29T17:45:21;7.80;99.90
53520;DHT22;39397;53.204;5.778;2022-12-29T17:47:47;8.00;99.90
53520;DHT22;39397;53.204;5.778;2022-12-29T17:50:15;7.80;99.90
53520;DHT22;39397;53.204;5.778;2022-12-29T17:52:43;7.80;99.90
53520;DHT22;39397;53.204;5.778;2022-12-29T17:55:19;7.90;99.90
53520;DHT22;39397;53.204;5.778;2022-12-29T17:57:44;8.60;99.90
53520;DHT22;39397;53.204;5.778;2022-12-29T18:00:18;7.90;99.90
53520;DHT22;39397;53.204;5.778;2022-12-29T18:02:44;8.00;99.90
53520;DHT22;39397;53.204;5.778;2022-12-29T18:07:43;8.00;99.90
53520;DHT22;39397;53.204;5.778;2022-12-29T18:10:09;8.00;99.90
53520;DHT22;39397;53.204;5.778;2022-12-29T18:12:46;8.40;99.90
53520;DHT22;39397;53.204;5.778;2022-12-29T18:15:21;8.40;99.90
53520;DHT22;39397;53.204;5.778;2022-12-29T18:17:47;7.90;99.90
53520;DHT22;39397;53.204;5.778;2022-12-29T18:20:14;7.70;99.90
53520;DHT22;39397;53.204;5.778;2022-12-29T18:22:40;7.70;99.90
53520;DHT22;39397;53.204;5.778;2022-12-29T18:25:27;7.70;99.90
53520;DHT22;39397;53.204;5.778;2022-12-29T18:27:55;7.60;99.90
53520;DHT22;39397;53.204;5.778;2022-12-29T18:30:21;8.40;99.90
53520;DHT22;39397;53.204;5.778;2022-12-29T18:32:47;7.70;99.90
53520;DHT22;39397;53.204;5.778;2022-12-29T18:38:01;7.70;99.90
53520;DHT22;39397;53.204;5.778;2022-12-29T18:40:26;7.60;99.90